Time;durP1;ratioP1;P1;durP2;ratioP2;P2;SDS_P1;SDS_P2;PMS_P1;PMS_P2;Temp;Humidity;BMP_temperature;BMP_pressure;BME280_temperature;BME280_humidity;BME280_pressure;Samples;Min_cycle;Max_cycle;Signal;HPM_P1;HPM_P2
2022/01/30 00:00:19;;;;;;;10.05;2.67;;;;;;;;;;4956846;28;20139;-69
2022/01/30 00:02:45;;;;;;;8.07;2.17;;;;;;;;;;4974567;28;20045;-69
2022/01/30 00:05:11;;;;;;;9.98;2.20;;;;;;;;;;4959416;28;21213;-69
2022/01/30 00:07:37;;;;;;;7.82;2.22;;;;;;;;;;4973950;28;20120;-69
2022/01/30 00:10:06;;;;;;;8.85;2.95;;;;;;;;;;4972027;28;20444;-69
2022/01/30 00:12:45;;;;;;;10.68;2.45;;;;;;;;;;4958056;28;20116;-69
2022/01/30 00:15:12;;;;;;;10.38;2.20;;;;;;;;;;4956480;28;20041;-68
2022/01/30 00:17:44;;;;;;;9.95;2.40;;;;;;;;;;4963574;28;20062;-69
2022/01/30 00:20:17;;;;;;;9.82;2.50;;;;;;;;;;4985489;28;20045;-69
2022/01/30 00:25:30;;;;;;;10.20;2.47;;;;;;;;;;4985594;28;20049;-69
2022/01/30 00:28:04;;;;;;;11.27;3.03;;;;;;;;;;4963551;28;20136;-69
2022/01/30 00:30:34;;;;;;;8.77;2.42;;;;;;;;;;4985547;28;20191;-69
2022/01/30 00:33:00;;;;;;;8.82;2.30;;;;;;;;;;4984438;28;20069;-69
2022/01/30 00:35:26;;;;;;;10.98;2.28;;;;;;;;;;4971885;28;20042;-80
2022/01/30 00:37:54;;;;;;;7.78;2.10;;;;;;;;;;4990944;28;20061;-78
2022/01/30 00:40:19;;;;;;;8.55;2.45;;;;;;;;;;4991693;28;20442;-78
2022/01/30 00:42:45;;;;;;;10.88;2.28;;;;;;;;;;4991504;28;20050;-77
2022/01/30 00:45:12;;;;;;;8.75;2.17;;;;;;;;;;4991635;28;20117;-78
2022/01/30 00:47:38;;;;;;;9.82;2.20;;;;;;;;;;4975297;28;20041;-77
2022/01/30 00:50:04;;;;;;;10.52;2.28;;;;;;;;;;4975546;28;20125;-78
2022/01/30 00:52:30;;;;;;;9.65;2.45;;;;;;;;;;4990786;28;20049;-77
2022/01/30 00:54:56;;;;;;;10.10;2.35;;;;;;;;;;4991331;28;20119;-78
2022/01/30 00:57:22;;;;;;;6.43;2.08;;;;;;;;;;4974935;28;20651;-77
2022/01/30 00:59:49;;;;;;;9.95;2.60;;;;;;;;;;4990884;28;20042;-77
2022/01/30 01:02:15;;;;;;;8.55;2.42;;;;;;;;;;4989634;28;20065;-77
2022/01/30 01:04:41;;;;;;;7.85;2.20;;;;;;;;;;4990572;28;20125;-77
2022/01/30 01:07:14;;;;;;;11.05;2.55;;;;;;;;;;4978957;28;20641;-77
2022/01/30 01:09:41;;;;;;;9.93;2.22;;;;;;;;;;4971366;28;20145;-77
2022/01/30 01:25:51;;;;;;;8.88;2.50;;;;;;;;;;4985095;28;20042;-69
2022/01/30 01:28:17;;;;;;;9.57;2.50;;;;;;;;;;4984504;28;20133;-69
2022/01/30 01:30:43;;;;;;;10.32;2.30;;;;;;;;;;4984087;28;20499;-76
2022/01/30 01:33:09;;;;;;;9.65;2.20;;;;;;;;;;4989392;28;20484;-77
2022/01/30 01:35:35;;;;;;;7.53;2.08;;;;;;;;;;4990214;28;20052;-77
2022/01/30 01:38:03;;;;;;;8.45;2.15;;;;;;;;;;4990368;28;20041;-77
2022/01/30 01:40:30;;;;;;;10.15;2.42;;;;;;;;;;4973629;28;20056;-77
2022/01/30 01:43:00;;;;;;;10.07;2.33;;;;;;;;;;4990426;28;20042;-78
2022/01/30 01:45:32;;;;;;;11.48;3.75;;;;;;;;;;4990237;28;20046;-78
2022/01/30 01:48:02;;;;;;;10.75;2.55;;;;;;;;;;4989881;28;20683;-78
2022/01/30 01:50:40;;;;;;;13.23;2.53;;;;;;;;;;4990711;28;20627;-78
2022/01/30 01:53:08;;;;;;;7.97;2.30;;;;;;;;;;4989994;28;20049;-78
2022/01/30 01:55:34;;;;;;;7.55;2.33;;;;;;;;;;4973726;28;20125;-78
2022/01/30 01:58:00;;;;;;;8.43;2.40;;;;;;;;;;4990114;28;20097;-78
2022/01/30 02:00:26;;;;;;;8.70;2.30;;;;;;;;;;4990507;28;20041;-78
2022/01/30 02:02:54;;;;;;;8.50;2.13;;;;;;;;;;4989153;28;20475;-77
2022/01/30 02:05:22;;;;;;;8.95;2.20;;;;;;;;;;4990193;28;20100;-77
2022/01/30 02:10:49;;;;;;;9.88;2.78;;;;;;;;;;4990419;28;20072;-77
2022/01/30 02:24:35;;;;;;;7.50;2.20;;;;;;;;;;4994034;28;20531;-78
2022/01/30 02:27:02;;;;;;;9.55;2.55;;;;;;;;;;5011277;28;20617;-78
2022/01/30 02:29:28;;;;;;;9.13;2.35;;;;;;;;;;4994317;28;20745;-78
2022/01/30 02:31:57;;;;;;;8.80;2.60;;;;;;;;;;4994112;28;20342;-78
2022/01/30 02:34:30;;;;;;;9.15;2.40;;;;;;;;;;4994467;28;20041;-78
2022/01/30 02:36:56;;;;;;;9.15;2.58;;;;;;;;;;4977781;28;20476;-78
2022/01/30 02:39:23;;;;;;;9.85;2.60;;;;;;;;;;4994010;28;20209;-78
2022/01/30 02:41:50;;;;;;;9.35;2.45;;;;;;;;;;4993862;28;20124;-77
2022/01/30 02:44:31;;;;;;;9.98;2.45;;;;;;;;;;4993846;28;20041;-78
2022/01/30 02:47:02;;;;;;;8.20;2.28;;;;;;;;;;4993452;28;20049;-78
2022/01/30 02:52:26;;;;;;;9.75;2.55;;;;;;;;;;4940332;28;20041;-78
2022/01/30 02:54:52;;;;;;;9.73;2.22;;;;;;;;;;4993801;28;20042;-77
2022/01/30 02:57:19;;;;;;;9.25;2.30;;;;;;;;;;4993794;28;20097;-78
2022/01/30 02:59:45;;;;;;;10.13;2.30;;;;;;;;;;4993550;28;20050;-78
2022/01/30 03:02:11;;;;;;;8.57;2.13;;;;;;;;;;4993094;28;20107;-78
2022/01/30 03:04:37;;;;;;;9.07;2.38;;;;;;;;;;4993145;28;20212;-78
2022/01/30 03:07:03;;;;;;;8.07;2.33;;;;;;;;;;4985952;28;20042;-77
2022/01/30 03:09:29;;;;;;;8.93;2.50;;;;;;;;;;4973017;28;20673;-78
2022/01/30 03:11:55;;;;;;;7.90;2.40;;;;;;;;;;4957024;28;20050;-78
2022/01/30 03:14:21;;;;;;;8.95;2.25;;;;;;;;;;4972873;28;20105;-78
2022/01/30 03:16:47;;;;;;;8.00;2.13;;;;;;;;;;4979040;28;20046;-78
2022/01/30 03:19:13;;;;;;;8.75;2.85;;;;;;;;;;4988269;28;20042;-77
2022/01/30 03:21:39;;;;;;;9.68;2.53;;;;;;;;;;4991940;28;20054;-77
2022/01/30 03:24:05;;;;;;;9.00;2.20;;;;;;;;;;4992347;28;20609;-77
2022/01/30 03:26:37;;;;;;;11.88;2.90;;;;;;;;;;4991804;28;20041;-77
2022/01/30 03:29:06;;;;;;;10.05;2.13;;;;;;;;;;4992052;28;20050;-77
2022/01/30 03:31:33;;;;;;;9.85;2.65;;;;;;;;;;4965311;28;20737;-78
2022/01/30 03:33:58;;;;;;;10.93;2.72;;;;;;;;;;4987634;28;20046;-77
2022/01/30 03:36:24;;;;;;;10.48;2.72;;;;;;;;;;4991982;28;20076;-77
2022/01/30 03:38:50;;;;;;;11.23;2.88;;;;;;;;;;4991757;28;20045;-77
2022/01/30 03:41:16;;;;;;;9.20;2.75;;;;;;;;;;4991922;28;20057;-77
2022/01/30 03:43:42;;;;;;;8.85;2.53;;;;;;;;;;4991786;28;20345;-77
2022/01/30 03:46:08;;;;;;;12.27;2.97;;;;;;;;;;4991982;28;20046;-78
2022/01/30 03:48:34;;;;;;;8.57;2.30;;;;;;;;;;4992090;28;20564;-78
2022/01/30 03:51:00;;;;;;;10.57;2.95;;;;;;;;;;4991885;28;20056;-78
2022/01/30 03:53:26;;;;;;;10.07;2.60;;;;;;;;;;4992335;28;20046;-78
2022/01/30 03:55:52;;;;;;;9.40;2.60;;;;;;;;;;4992172;28;20367;-78
2022/01/30 03:58:19;;;;;;;8.80;2.40;;;;;;;;;;4992098;28;20148;-78
2022/01/30 04:00:45;;;;;;;7.97;2.28;;;;;;;;;;4992258;28;20078;-79
2022/01/30 04:03:11;;;;;;;11.65;2.88;;;;;;;;;;4991918;28;20038;-78
2022/01/30 04:05:37;;;;;;;7.15;2.38;;;;;;;;;;4992773;28;20076;-78
2022/01/30 04:08:03;;;;;;;10.50;2.80;;;;;;;;;;4991779;28;20050;-78
2022/01/30 04:10:30;;;;;;;8.40;2.65;;;;;;;;;;4992048;28;20100;-77
2022/01/30 04:12:56;;;;;;;8.35;2.53;;;;;;;;;;4992284;28;20168;-79
2022/01/30 04:15:22;;;;;;;9.60;2.53;;;;;;;;;;4991844;28;20096;-77
2022/01/30 04:17:48;;;;;;;9.70;2.78;;;;;;;;;;4991680;28;20072;-80
2022/01/30 04:20:15;;;;;;;10.05;2.85;;;;;;;;;;4988183;28;20048;-79
2022/01/30 04:22:41;;;;;;;10.65;2.85;;;;;;;;;;5000381;28;20121;-77
2022/01/30 04:25:07;;;;;;;10.43;2.55;;;;;;;;;;4990877;28;20196;-79
2022/01/30 04:27:33;;;;;;;10.82;2.78;;;;;;;;;;4991758;28;20033;-79
2022/01/30 04:29:59;;;;;;;11.45;3.08;;;;;;;;;;4975323;28;20688;-77
2022/01/30 04:32:26;;;;;;;12.43;3.13;;;;;;;;;;4975052;28;20053;-77
2022/01/30 04:34:57;;;;;;;9.40;2.47;;;;;;;;;;4991447;28;20710;-78
2022/01/30 04:37:39;;;;;;;10.05;2.67;;;;;;;;;;4990773;28;20092;-79
2022/01/30 04:57:02;;;;;;;11.43;2.97;;;;;;;;;;4947622;28;20012;-79
2022/01/30 05:02:07;;;;;;;11.82;3.10;;;;;;;;;;4986716;28;20054;-79
2022/01/30 05:09:44;;;;;;;10.80;2.75;;;;;;;;;;4971575;28;19968;-79
2022/01/30 05:12:11;;;;;;;10.40;3.03;;;;;;;;;;4954913;28;20472;-79
2022/01/30 05:14:37;;;;;;;11.35;3.70;;;;;;;;;;4970760;28;20058;-79
2022/01/30 05:17:05;;;;;;;10.98;2.90;;;;;;;;;;4970182;28;20054;-79
2022/01/30 05:19:31;;;;;;;11.35;3.20;;;;;;;;;;4970907;28;20504;-79
2022/01/30 05:21:57;;;;;;;12.18;3.15;;;;;;;;;;4987455;28;20050;-79
2022/01/30 05:24:24;;;;;;;10.23;3.08;;;;;;;;;;4971098;28;20108;-80
2022/01/30 05:26:50;;;;;;;11.57;3.53;;;;;;;;;;4970287;28;20078;-79
2022/01/30 05:29:16;;;;;;;13.10;3.35;;;;;;;;;;4970840;28;20089;-79
2022/01/30 05:31:43;;;;;;;11.60;2.72;;;;;;;;;;4954534;28;20122;-79
2022/01/30 05:34:09;;;;;;;9.25;2.97;;;;;;;;;;4970819;28;20068;-80
2022/01/30 05:36:39;;;;;;;10.57;3.35;;;;;;;;;;4970467;28;20050;-79
2022/01/30 05:39:05;;;;;;;12.35;3.90;;;;;;;;;;4970366;28;20061;-79
2022/01/30 05:41:32;;;;;;;8.73;2.63;;;;;;;;;;4970984;28;20095;-80
2022/01/30 05:44:07;;;;;;;12.13;3.15;;;;;;;;;;4970702;28;20057;-79
2022/01/30 05:46:47;;;;;;;9.93;2.63;;;;;;;;;;4970588;28;20690;-79
2022/01/30 05:49:14;;;;;;;12.38;3.13;;;;;;;;;;4954969;28;20038;-79
2022/01/30 05:51:40;;;;;;;11.43;3.50;;;;;;;;;;4970343;28;20137;-79
2022/01/30 05:54:06;;;;;;;11.05;3.13;;;;;;;;;;4954790;28;20538;-80
2022/01/30 05:56:33;;;;;;;11.05;2.88;;;;;;;;;;4970093;28;20543;-79
2022/01/30 05:58:59;;;;;;;14.57;3.33;;;;;;;;;;4970218;28;20108;-79
2022/01/30 06:01:25;;;;;;;11.20;3.25;;;;;;;;;;4970417;28;20046;-80
2022/01/30 06:03:51;;;;;;;13.38;3.58;;;;;;;;;;4970288;28;20042;-80
2022/01/30 06:06:17;;;;;;;14.48;3.17;;;;;;;;;;4970881;28;20208;-80
2022/01/30 06:08:47;;;;;;;13.35;3.33;;;;;;;;;;4970524;28;20049;-80
2022/01/30 06:11:13;;;;;;;11.13;3.10;;;;;;;;;;4970799;28;20057;-80
2022/01/30 06:13:39;;;;;;;12.75;3.40;;;;;;;;;;4971024;28;20038;-80
2022/01/30 06:16:05;;;;;;;12.15;3.42;;;;;;;;;;4970819;28;20043;-79
2022/01/30 06:18:32;;;;;;;14.63;3.70;;;;;;;;;;4954695;28;20515;-79
2022/01/30 06:20:58;;;;;;;11.75;3.35;;;;;;;;;;4970764;28;20050;-79
2022/01/30 06:23:26;;;;;;;15.25;3.70;;;;;;;;;;4970767;28;20113;-80
2022/01/30 06:25:52;;;;;;;12.05;3.30;;;;;;;;;;4970281;28;20053;-79
2022/01/30 06:28:19;;;;;;;12.55;3.38;;;;;;;;;;4970638;28;20051;-79
2022/01/30 06:30:45;;;;;;;12.73;3.30;;;;;;;;;;4954262;28;20045;-79
2022/01/30 06:33:11;;;;;;;14.27;3.63;;;;;;;;;;4953685;28;20050;-79
2022/01/30 06:35:37;;;;;;;11.98;3.40;;;;;;;;;;4954442;28;20074;-79
2022/01/30 06:38:03;;;;;;;12.77;3.63;;;;;;;;;;4953980;28;20129;-79
2022/01/30 06:40:29;;;;;;;12.88;3.25;;;;;;;;;;4970321;28;20100;-79
2022/01/30 06:42:56;;;;;;;11.45;3.38;;;;;;;;;;4954498;28;20577;-79
2022/01/30 06:45:22;;;;;;;13.18;3.88;;;;;;;;;;4970564;28;20153;-79
2022/01/30 06:47:48;;;;;;;11.93;3.40;;;;;;;;;;4969688;28;20049;-79
2022/01/30 06:50:14;;;;;;;13.38;3.58;;;;;;;;;;4970166;28;20042;-79
2022/01/30 06:52:41;;;;;;;13.15;3.35;;;;;;;;;;4952662;28;20400;-79
2022/01/30 06:55:07;;;;;;;11.40;3.33;;;;;;;;;;4953995;28;20106;-79
2022/01/30 06:57:33;;;;;;;13.13;3.40;;;;;;;;;;4969742;28;20133;-79
2022/01/30 06:59:59;;;;;;;12.40;3.45;;;;;;;;;;4969859;28;20201;-78
2022/01/30 07:02:25;;;;;;;11.13;3.10;;;;;;;;;;4956411;28;20575;-79
2022/01/30 07:04:51;;;;;;;12.43;3.70;;;;;;;;;;4991211;28;20061;-79
2022/01/30 07:07:17;;;;;;;12.50;3.53;;;;;;;;;;4970294;28;20065;-80
2022/01/30 07:09:44;;;;;;;11.82;3.38;;;;;;;;;;4986768;28;20052;-80
2022/01/30 07:12:10;;;;;;;13.80;3.58;;;;;;;;;;4988050;28;20088;-79
2022/01/30 07:14:36;;;;;;;12.27;3.75;;;;;;;;;;4975228;28;20524;-70
2022/01/30 07:17:02;;;;;;;11.80;3.28;;;;;;;;;;4968905;28;20056;-70
2022/01/30 07:19:28;;;;;;;12.73;3.42;;;;;;;;;;4989340;28;20111;-70
2022/01/30 07:21:54;;;;;;;13.77;3.90;;;;;;;;;;4985853;28;20677;-70
2022/01/30 07:24:20;;;;;;;16.33;3.97;;;;;;;;;;4986534;28;20038;-70
2022/01/30 07:26:46;;;;;;;11.13;3.30;;;;;;;;;;4986250;28;20128;-70
2022/01/30 07:29:12;;;;;;;13.10;3.42;;;;;;;;;;4987370;28;20062;-70
2022/01/30 07:31:38;;;;;;;11.60;3.60;;;;;;;;;;4959942;28;20046;-70
2022/01/30 07:34:04;;;;;;;14.95;4.35;;;;;;;;;;4961380;28;20057;-71
2022/01/30 07:36:33;;;;;;;15.02;3.67;;;;;;;;;;4964878;28;20408;-69
2022/01/30 07:38:59;;;;;;;13.60;3.70;;;;;;;;;;4986767;28;20107;-71
2022/01/30 07:41:25;;;;;;;11.88;2.97;;;;;;;;;;4986148;28;20045;-70
2022/01/30 07:43:51;;;;;;;12.65;3.72;;;;;;;;;;4970346;28;20499;-70
2022/01/30 07:46:17;;;;;;;11.25;3.30;;;;;;;;;;4986482;28;20124;-70
2022/01/30 07:48:43;;;;;;;11.38;3.33;;;;;;;;;;4986441;28;20108;-70
2022/01/30 07:51:09;;;;;;;12.02;3.53;;;;;;;;;;4969811;28;20038;-70
2022/01/30 07:53:35;;;;;;;13.10;3.80;;;;;;;;;;4986115;28;20042;-71
2022/01/30 07:56:01;;;;;;;11.70;3.33;;;;;;;;;;4984672;28;20045;-70
2022/01/30 07:58:27;;;;;;;12.70;3.33;;;;;;;;;;4986119;28;20145;-70
2022/01/30 08:00:54;;;;;;;11.50;3.33;;;;;;;;;;4984671;28;20535;-68
2022/01/30 08:03:19;;;;;;;12.77;3.58;;;;;;;;;;4986172;28;20038;-69
2022/01/30 08:05:46;;;;;;;13.23;3.40;;;;;;;;;;4986664;28;20056;-69
2022/01/30 08:08:12;;;;;;;13.73;3.85;;;;;;;;;;4962359;28;21811;-69
2022/01/30 08:10:38;;;;;;;14.55;3.80;;;;;;;;;;4966549;28;20404;-69
2022/01/30 08:13:04;;;;;;;12.95;3.38;;;;;;;;;;4983384;28;20495;-69
2022/01/30 08:15:30;;;;;;;11.77;3.60;;;;;;;;;;4985180;28;20515;-69
2022/01/30 08:17:56;;;;;;;13.98;4.10;;;;;;;;;;4983276;28;20058;-69
2022/01/30 08:20:25;;;;;;;9.90;2.78;;;;;;;;;;4984444;28;20049;-69
2022/01/30 08:22:52;;;;;;;13.10;3.38;;;;;;;;;;4984912;28;20128;-68
2022/01/30 08:25:19;;;;;;;14.18;3.58;;;;;;;;;;4958093;28;20058;-69
2022/01/30 08:27:45;;;;;;;11.52;3.63;;;;;;;;;;4985091;28;20133;-69
2022/01/30 08:30:11;;;;;;;12.68;3.70;;;;;;;;;;4984471;28;20052;-68
2022/01/30 08:32:40;;;;;;;11.60;3.42;;;;;;;;;;4985508;28;20073;-69
2022/01/30 08:35:07;;;;;;;16.58;4.10;;;;;;;;;;4985909;28;20113;-69
2022/01/30 08:37:35;;;;;;;12.77;3.63;;;;;;;;;;4956785;28;20031;-69
2022/01/30 08:40:01;;;;;;;11.32;3.42;;;;;;;;;;4954839;28;20125;-69
2022/01/30 08:42:28;;;;;;;11.85;3.58;;;;;;;;;;4984508;28;20044;-69
2022/01/30 08:44:54;;;;;;;11.57;3.35;;;;;;;;;;4958043;28;20105;-69
2022/01/30 08:47:20;;;;;;;11.23;3.40;;;;;;;;;;4951814;28;20042;-69
2022/01/30 08:49:46;;;;;;;13.27;3.75;;;;;;;;;;4983855;28;20053;-68
2022/01/30 08:52:16;;;;;;;12.80;3.40;;;;;;;;;;4957491;28;20125;-69
2022/01/30 08:54:42;;;;;;;18.40;3.50;;;;;;;;;;4983801;28;20056;-69
2022/01/30 08:57:08;;;;;;;13.25;3.70;;;;;;;;;;4984143;28;20066;-69
2022/01/30 08:59:34;;;;;;;11.68;3.22;;;;;;;;;;4984257;28;20148;-69
2022/01/30 09:02:00;;;;;;;12.18;3.53;;;;;;;;;;4982900;28;20042;-69
2022/01/30 09:04:26;;;;;;;12.50;3.60;;;;;;;;;;4960403;28;20049;-69
2022/01/30 09:06:52;;;;;;;11.35;3.17;;;;;;;;;;4963699;28;20043;-68
2022/01/30 09:09:18;;;;;;;13.05;3.28;;;;;;;;;;4985911;28;20128;-69
2022/01/30 09:11:44;;;;;;;11.65;3.50;;;;;;;;;;4984460;28;20133;-68
2022/01/30 09:14:10;;;;;;;14.45;3.42;;;;;;;;;;4983567;28;20526;-69
2022/01/30 09:16:36;;;;;;;11.68;3.45;;;;;;;;;;4986738;28;20050;-69
2022/01/30 09:19:02;;;;;;;15.75;3.35;;;;;;;;;;4975526;28;20191;-68
2022/01/30 09:21:28;;;;;;;13.98;3.47;;;;;;;;;;4951295;28;20114;-69
2022/01/30 09:23:55;;;;;;;10.73;3.55;;;;;;;;;;4981488;28;20045;-69
2022/01/30 09:26:21;;;;;;;12.05;3.30;;;;;;;;;;4982971;28;20034;-69
2022/01/30 09:28:47;;;;;;;12.57;3.25;;;;;;;;;;4953359;28;20483;-69
2022/01/30 09:31:13;;;;;;;12.23;3.17;;;;;;;;;;4954339;28;20038;-69
2022/01/30 09:33:40;;;;;;;12.95;3.35;;;;;;;;;;4982658;28;20053;-70
2022/01/30 09:36:07;;;;;;;13.60;3.90;;;;;;;;;;4983287;28;20057;-70
2022/01/30 09:38:33;;;;;;;13.88;3.70;;;;;;;;;;4967141;28;20045;-70
2022/01/30 09:40:59;;;;;;;12.10;3.67;;;;;;;;;;4984135;28;20518;-69
2022/01/30 09:43:27;;;;;;;16.85;3.40;;;;;;;;;;4981228;28;20034;-69
2022/01/30 09:45:53;;;;;;;15.82;3.72;;;;;;;;;;4983131;28;20046;-69
2022/01/30 09:48:19;;;;;;;12.10;3.40;;;;;;;;;;4964422;28;20074;-69
2022/01/30 09:50:46;;;;;;;10.57;3.65;;;;;;;;;;4966413;28;20049;-70
2022/01/30 09:53:12;;;;;;;12.05;3.40;;;;;;;;;;4956330;28;20701;-69
2022/01/30 09:55:38;;;;;;;12.48;3.60;;;;;;;;;;4958555;28;20042;-69
2022/01/30 09:58:05;;;;;;;12.82;3.50;;;;;;;;;;4968924;28;20073;-69
2022/01/30 10:00:31;;;;;;;15.10;3.92;;;;;;;;;;4983738;28;20037;-69
2022/01/30 10:02:57;;;;;;;12.60;3.55;;;;;;;;;;4968361;28;20607;-69
2022/01/30 10:05:23;;;;;;;12.38;3.75;;;;;;;;;;4985327;28;20060;-69
2022/01/30 10:07:51;;;;;;;14.00;3.33;;;;;;;;;;4980771;28;20136;-69
2022/01/30 10:10:18;;;;;;;11.10;3.15;;;;;;;;;;4985060;28;20584;-69
2022/01/30 10:13:00;;;;;;;12.68;3.47;;;;;;;;;;4989249;28;20475;-69
2022/01/30 10:15:26;;;;;;;13.52;3.65;;;;;;;;;;4990365;28;20046;-69
2022/01/30 10:17:52;;;;;;;12.30;3.00;;;;;;;;;;4981859;28;20062;-69
2022/01/30 10:20:25;;;;;;;13.48;3.63;;;;;;;;;;4985000;28;20073;-69
2022/01/30 10:22:58;;;;;;;15.02;3.75;;;;;;;;;;4984820;28;20046;-69
2022/01/30 10:25:47;;;;;;;11.50;3.42;;;;;;;;;;4983936;28;20038;-69
2022/01/30 10:28:14;;;;;;;11.93;3.67;;;;;;;;;;4961556;28;20400;-69
2022/01/30 10:30:44;;;;;;;12.40;2.97;;;;;;;;;;4956497;28;20096;-69
2022/01/30 10:33:12;;;;;;;10.75;3.28;;;;;;;;;;4963900;28;20065;-69
2022/01/30 10:35:57;;;;;;;10.50;3.25;;;;;;;;;;4975144;28;20058;-69
2022/01/30 10:38:26;;;;;;;10.10;3.40;;;;;;;;;;4960038;28;20096;-69
2022/01/30 10:40:58;;;;;;;11.40;2.97;;;;;;;;;;4977226;28;20050;-69
2022/01/30 10:43:44;;;;;;;15.80;3.88;;;;;;;;;;4960119;28;21038;-69
2022/01/30 10:46:37;;;;;;;12.65;3.97;;;;;;;;;;4977125;28;20085;-70
2022/01/30 10:49:07;;;;;;;16.33;3.35;;;;;;;;;;4935898;28;20100;-68
2022/01/30 10:51:33;;;;;;;14.98;3.92;;;;;;;;;;4932148;28;20050;-69
2022/01/30 10:54:05;;;;;;;13.77;3.63;;;;;;;;;;4963684;28;21881;-69
2022/01/30 10:56:43;;;;;;;15.15;4.05;;;;;;;;;;4947062;28;20087;-70
2022/01/30 10:59:13;;;;;;;16.63;4.30;;;;;;;;;;4941075;28;20132;-70
2022/01/30 11:01:40;;;;;;;14.20;3.80;;;;;;;;;;4941021;28;20041;-70
2022/01/30 11:04:07;;;;;;;12.27;3.95;;;;;;;;;;4944232;28;20819;-69
2022/01/30 11:06:39;;;;;;;17.52;4.32;;;;;;;;;;4959399;28;20548;-69
2022/01/30 11:09:13;;;;;;;14.68;3.53;;;;;;;;;;4964178;28;20050;-69
2022/01/30 11:11:44;;;;;;;15.00;3.88;;;;;;;;;;4964856;28;20155;-69
2022/01/30 11:16:57;;;;;;;15.52;3.97;;;;;;;;;;4966395;28;20069;-70
2022/01/30 11:19:23;;;;;;;16.60;3.90;;;;;;;;;;4964828;28;20129;-69
2022/01/30 11:22:10;;;;;;;15.90;4.05;;;;;;;;;;4965187;28;20069;-69
2022/01/30 11:24:46;;;;;;;14.52;3.78;;;;;;;;;;4948945;28;20050;-70
2022/01/30 11:27:13;;;;;;;14.05;3.72;;;;;;;;;;4951103;28;20053;-70
2022/01/30 11:29:39;;;;;;;14.50;3.97;;;;;;;;;;4963456;28;21149;-70
2022/01/30 11:32:06;;;;;;;13.77;3.92;;;;;;;;;;4964452;28;20060;-70
2022/01/30 11:34:33;;;;;;;13.57;3.85;;;;;;;;;;4966777;28;20053;-71
2022/01/30 11:36:59;;;;;;;15.82;4.30;;;;;;;;;;4966973;28;20847;-71
2022/01/30 11:39:25;;;;;;;18.98;4.20;;;;;;;;;;4946570;28;20050;-68
2022/01/30 11:42:07;;;;;;;18.25;3.95;;;;;;;;;;4962111;28;20052;-68
2022/01/30 11:44:33;;;;;;;17.42;3.97;;;;;;;;;;4948938;28;20053;-68
2022/01/30 11:46:59;;;;;;;19.13;3.78;;;;;;;;;;4963941;28;20057;-68
2022/01/30 11:49:38;;;;;;;15.93;4.10;;;;;;;;;;4962950;28;20706;-68
2022/01/30 11:52:06;;;;;;;13.82;4.07;;;;;;;;;;4962680;28;20156;-67
2022/01/30 11:54:33;;;;;;;15.38;4.10;;;;;;;;;;4949720;28;20065;-68
2022/01/30 11:56:59;;;;;;;13.07;4.00;;;;;;;;;;4949831;28;20057;-67
2022/01/30 11:59:36;;;;;;;14.35;3.67;;;;;;;;;;4950146;28;20050;-67
2022/01/30 12:02:21;;;;;;;12.88;3.30;;;;;;;;;;4975109;28;20044;-68
2022/01/30 12:04:54;;;;;;;13.98;3.55;;;;;;;;;;4986845;28;20129;-68
2022/01/30 12:07:36;;;;;;;39.08;4.15;;;;;;;;;;4971666;28;20041;-69
2022/01/30 12:10:17;;;;;;;12.27;3.53;;;;;;;;;;4967739;28;20046;-67
2022/01/30 12:12:49;;;;;;;19.25;4.45;;;;;;;;;;4961329;28;20132;-68
2022/01/30 12:15:34;;;;;;;20.38;4.85;;;;;;;;;;4966011;28;21804;-68
2022/01/30 12:18:00;;;;;;;17.90;4.18;;;;;;;;;;4980029;28;20045;-68
2022/01/30 12:20:28;;;;;;;13.20;3.83;;;;;;;;;;4985259;28;20072;-67
2022/01/30 12:22:55;;;;;;;13.05;3.75;;;;;;;;;;4965591;28;20536;-68
2022/01/30 12:25:25;;;;;;;21.02;4.28;;;;;;;;;;4982761;28;20072;-68
2022/01/30 12:27:54;;;;;;;18.92;3.97;;;;;;;;;;4960179;28;20084;-68
2022/01/30 12:30:38;;;;;;;14.63;4.38;;;;;;;;;;4975344;28;20050;-68
2022/01/30 12:33:24;;;;;;;18.02;4.13;;;;;;;;;;4966636;28;20050;-68
2022/01/30 12:35:51;;;;;;;14.80;4.03;;;;;;;;;;4966730;28;20685;-68
2022/01/30 12:38:17;;;;;;;12.48;3.05;;;;;;;;;;4967142;28;20106;-67
2022/01/30 12:40:46;;;;;;;15.98;4.50;;;;;;;;;;4950982;28;20172;-67
2022/01/30 12:43:12;;;;;;;19.35;4.15;;;;;;;;;;4950585;28;20113;-68
2022/01/30 12:45:38;;;;;;;15.18;3.40;;;;;;;;;;4966477;28;20681;-67
2022/01/30 12:48:08;;;;;;;16.55;3.80;;;;;;;;;;4947819;28;20157;-68
2022/01/30 12:50:36;;;;;;;14.57;3.80;;;;;;;;;;4959517;28;20054;-68
2022/01/30 12:53:03;;;;;;;17.35;4.32;;;;;;;;;;4963802;28;20089;-68
2022/01/30 12:55:29;;;;;;;12.30;4.28;;;;;;;;;;4986330;28;20049;-67
2022/01/30 12:57:55;;;;;;;13.02;3.53;;;;;;;;;;4981461;28;20054;-67
2022/01/30 13:00:22;;;;;;;15.30;3.63;;;;;;;;;;4941057;28;20495;-68
2022/01/30 13:02:55;;;;;;;12.02;3.53;;;;;;;;;;4960543;28;20042;-68
2022/01/30 13:05:22;;;;;;;12.75;3.70;;;;;;;;;;4995853;28;20046;-68
2022/01/30 13:07:53;;;;;;;11.43;3.60;;;;;;;;;;4988601;28;20687;-67
2022/01/30 13:10:19;;;;;;;12.93;3.47;;;;;;;;;;4987076;28;20204;-68
2022/01/30 13:12:45;;;;;;;12.15;3.65;;;;;;;;;;4979947;28;20144;-68
2022/01/30 13:15:16;;;;;;;14.75;3.60;;;;;;;;;;4982568;28;20623;-68
2022/01/30 13:17:42;;;;;;;11.20;3.28;;;;;;;;;;4977920;28;20115;-68
2022/01/30 13:20:09;;;;;;;14.30;3.72;;;;;;;;;;4948500;28;20455;-68
2022/01/30 13:22:38;;;;;;;13.20;3.50;;;;;;;;;;4958751;28;20514;-68
2022/01/30 13:25:05;;;;;;;12.73;4.00;;;;;;;;;;4982504;28;20112;-67
2022/01/30 13:27:31;;;;;;;13.80;3.47;;;;;;;;;;4965856;28;20057;-68
2022/01/30 13:29:57;;;;;;;10.77;3.30;;;;;;;;;;4983501;28;20046;-68
2022/01/30 13:32:25;;;;;;;12.95;3.30;;;;;;;;;;4981629;28;20046;-68
2022/01/30 13:34:53;;;;;;;12.30;3.55;;;;;;;;;;4982217;28;20078;-68
2022/01/30 13:37:20;;;;;;;11.80;3.85;;;;;;;;;;4981731;28;20046;-67
2022/01/30 13:39:51;;;;;;;12.55;3.22;;;;;;;;;;4984854;28;20137;-75
2022/01/30 13:45:07;;;;;;;11.73;3.65;;;;;;;;;;4986752;28;20053;-75
2022/01/30 13:47:34;;;;;;;10.77;3.40;;;;;;;;;;4985613;28;20043;-75
2022/01/30 13:50:00;;;;;;;12.95;3.75;;;;;;;;;;4986373;28;20046;-75
2022/01/30 13:52:32;;;;;;;12.40;3.30;;;;;;;;;;4987722;28;20631;-75
2022/01/30 13:55:02;;;;;;;12.63;3.75;;;;;;;;;;4985731;28;20081;-75
2022/01/30 13:57:32;;;;;;;13.35;3.28;;;;;;;;;;4986306;28;20045;-75
2022/01/30 14:00:07;;;;;;;11.73;3.22;;;;;;;;;;4984535;28;20066;-75
2022/01/30 14:02:33;;;;;;;11.80;2.97;;;;;;;;;;4966750;28;20078;-75
2022/01/30 14:05:18;;;;;;;10.80;3.17;;;;;;;;;;4966948;28;20051;-75
2022/01/30 14:07:44;;;;;;;13.95;3.70;;;;;;;;;;4967076;28;20650;-75
2022/01/30 14:10:10;;;;;;;12.15;3.38;;;;;;;;;;4966757;28;20121;-75
2022/01/30 14:12:39;;;;;;;12.02;3.38;;;;;;;;;;4970413;28;20061;-76
2022/01/30 14:15:07;;;;;;;11.00;3.45;;;;;;;;;;4970979;28;20038;-75
2022/01/30 14:17:33;;;;;;;11.30;3.00;;;;;;;;;;4971109;28;20105;-75
2022/01/30 14:20:04;;;;;;;11.60;3.05;;;;;;;;;;4970873;28;20061;-75
2022/01/30 14:22:34;;;;;;;12.52;3.35;;;;;;;;;;4970715;28;20097;-76
2022/01/30 14:25:01;;;;;;;13.35;3.30;;;;;;;;;;4973018;28;20050;-75
2022/01/30 14:27:27;;;;;;;11.27;3.13;;;;;;;;;;4963375;28;20070;-75
2022/01/30 14:29:59;;;;;;;13.05;3.45;;;;;;;;;;4971297;28;20631;-75
2022/01/30 14:32:30;;;;;;;9.57;3.33;;;;;;;;;;4970920;28;20085;-75
2022/01/30 14:34:56;;;;;;;11.77;3.30;;;;;;;;;;4970316;28;20046;-75
2022/01/30 14:37:22;;;;;;;12.05;3.30;;;;;;;;;;4979142;28;20073;-75
2022/01/30 14:39:56;;;;;;;12.43;3.42;;;;;;;;;;4986359;28;20047;-75
2022/01/30 14:42:23;;;;;;;12.38;3.55;;;;;;;;;;4970526;28;20063;-75
2022/01/30 14:44:49;;;;;;;13.43;3.38;;;;;;;;;;4970777;28;20034;-75
2022/01/30 14:47:15;;;;;;;11.38;3.30;;;;;;;;;;4971218;28;20046;-75
2022/01/30 14:49:41;;;;;;;11.10;2.95;;;;;;;;;;4954667;28;20046;-75
2022/01/30 14:52:07;;;;;;;14.27;3.63;;;;;;;;;;4970081;28;20122;-75
2022/01/30 14:54:34;;;;;;;12.88;3.58;;;;;;;;;;4971038;28;20046;-75
2022/01/30 14:57:01;;;;;;;13.55;3.40;;;;;;;;;;4970611;28;20137;-74
2022/01/30 14:59:28;;;;;;;9.98;2.78;;;;;;;;;;4972157;28;20047;-75
2022/01/30 15:01:54;;;;;;;11.43;3.20;;;;;;;;;;4978658;28;20132;-75
2022/01/30 15:04:20;;;;;;;10.70;3.30;;;;;;;;;;4987940;28;20038;-75
2022/01/30 15:06:46;;;;;;;12.38;3.53;;;;;;;;;;4989980;28;20112;-75
2022/01/30 15:09:13;;;;;;;15.43;3.25;;;;;;;;;;4973766;28;20050;-75
2022/01/30 15:11:39;;;;;;;9.07;2.80;;;;;;;;;;4991296;28;20046;-76
2022/01/30 15:14:05;;;;;;;10.32;3.00;;;;;;;;;;4989955;28;20038;-75
2022/01/30 15:16:48;;;;;;;12.85;3.45;;;;;;;;;;4973816;28;20061;-76
2022/01/30 15:19:15;;;;;;;12.90;3.60;;;;;;;;;;4974397;28;20057;-75
2022/01/30 15:21:41;;;;;;;11.13;3.00;;;;;;;;;;4989681;28;20043;-76
2022/01/30 15:24:08;;;;;;;12.73;3.25;;;;;;;;;;4989857;28;20169;-75
2022/01/30 15:26:34;;;;;;;10.43;3.10;;;;;;;;;;4989699;28;20042;-75
2022/01/30 15:29:01;;;;;;;11.55;3.35;;;;;;;;;;4991367;28;20604;-75
2022/01/30 15:31:27;;;;;;;12.05;3.00;;;;;;;;;;4983918;28;20160;-75
2022/01/30 15:33:53;;;;;;;8.70;2.63;;;;;;;;;;4980672;28;20084;-75
2022/01/30 15:36:19;;;;;;;10.20;3.00;;;;;;;;;;4988975;28;20725;-75
2022/01/30 15:38:45;;;;;;;10.65;2.97;;;;;;;;;;4988811;28;20048;-75
2022/01/30 15:41:11;;;;;;;11.10;2.88;;;;;;;;;;4989712;28;20464;-74